Shinwamaru — SHINWA — position and weather

sailwx.info

Track history (hours):
 
Tides and Currents Weather Stations Pressure Air Temp Water Temp Dewpoint Dewpoint Depression Visibility Wind Speed Wind Dir Waves Ship Positions

Shinwamaru

Last reported at 2017-Oct-20 07:37 UTC. Time now 2017-Oct-22 19:03 UTC.
Position N 35°27' E 139°40'.

Length 12 m.

Type: Tug. MMSI: 431009702.

Date/timePositionNaut miles runAvg speedWind from/ knotsBaromVisibWave heightAir tempDewpointWater temp
2017-Oct-20 07:37N 35°27' E 139°40'0 0.4
2017-Oct-20 07:30N 35°27' E 139°40'2 3.4
2017-Oct-20 06:46N 35°29' E 139°41'2 7.4
2017-Oct-20 06:30N 35°30' E 139°43'2 0.3
2017-Oct-20 00:53N 35°30' E 139°45'3 7.5
2017-Oct-20 00:30N 35°29' E 139°42'3 1.7
2017-Oct-19 22:41N 35°27' E 139°40'  
2017-Oct-16 04:35N 35°27' E 139°40'0 3.5
2017-Oct-16 04:29N 35°27' E 139°40'3 6.6
2017-Oct-16 04:00N 35°29' E 139°43'3 2.3
2017-Oct-16 02:37N 35°31' E 139°46'1 3.1
2017-Oct-16 02:12N 35°30' E 139°45'1 3.6
2017-Oct-16 02:00N 35°30' E 139°44'2 3.5
2017-Oct-16 01:30N 35°29' E 139°42'2 3.4
2017-Oct-16 01:00N 35°28' E 139°40'1 3.0
2017-Oct-16 00:30N 35°28' E 139°39'0 0.1
2017-Oct-15 23:55N 35°28' E 139°38'0 0.0
2017-Oct-15 23:25N 35°28' E 139°38'0 0.4
2017-Oct-15 23:00N 35°28' E 139°39'  
2017-Oct-13 06:47N 35°27' E 139°40'2 5.7
2017-Oct-13 06:30N 35°28' E 139°41'4 6.8
2017-Oct-13 05:57N 35°30' E 139°44'0 0.0
2017-Oct-12 21:12N 35°30' E 139°45'2 7.5
2017-Oct-12 20:56N 35°29' E 139°43'3 6.7
2017-Oct-12 20:30N 35°27' E 139°40'  
Track history (hours):
 
Tides and Currents Weather Stations Pressure Air Temp Water Temp Dewpoint Dewpoint Depression Visibility Wind Speed Wind Dir Waves Ship Positions

Shinwamaru

Last reported at 2017-Oct-20 07:37 UTC. Time now 2017-Oct-22 19:03 UTC.
Position N 35°27' E 139°40'.

Length 12 m.

Type: Tug. MMSI: 431009702.

Date/timePositionNaut miles runAvg speedWind from/ knotsBaromVisibWave heightAir tempDewpointWater temp
2017-Oct-20 07:37N 35°27' E 139°40'0 0.4
2017-Oct-20 07:30N 35°27' E 139°40'2 3.4
2017-Oct-20 06:46N 35°29' E 139°41'2 7.4
2017-Oct-20 06:30N 35°30' E 139°43'2 0.3
2017-Oct-20 00:53N 35°30' E 139°45'3 7.5
2017-Oct-20 00:30N 35°29' E 139°42'3 1.7
2017-Oct-19 22:41N 35°27' E 139°40'  
2017-Oct-16 04:35N 35°27' E 139°40'0 3.5
2017-Oct-16 04:29N 35°27' E 139°40'3 6.6
2017-Oct-16 04:00N 35°29' E 139°43'3 2.3
2017-Oct-16 02:37N 35°31' E 139°46'1 3.1
2017-Oct-16 02:12N 35°30' E 139°45'1 3.6
2017-Oct-16 02:00N 35°30' E 139°44'2 3.5
2017-Oct-16 01:30N 35°29' E 139°42'2 3.4
2017-Oct-16 01:00N 35°28' E 139°40'1 3.0
2017-Oct-16 00:30N 35°28' E 139°39'0 0.1
2017-Oct-15 23:55N 35°28' E 139°38'0 0.0
2017-Oct-15 23:25N 35°28' E 139°38'0 0.4
2017-Oct-15 23:00N 35°28' E 139°39'  
2017-Oct-13 06:47N 35°27' E 139°40'2 5.7
2017-Oct-13 06:30N 35°28' E 139°41'4 6.8
2017-Oct-13 05:57N 35°30' E 139°44'0 0.0
2017-Oct-12 21:12N 35°30' E 139°45'2 7.5
2017-Oct-12 20:56N 35°29' E 139°43'3 6.7
2017-Oct-12 20:30N 35°27' E 139°40'  

Dump ship's entire track history